sensor_id;sensor_type;location;lat;lon;timestamp;temperature;humidity
25170;DHT22;13129;48.012;10.352;2022-09-09T03:32:29;12.00;99.90
25170;DHT22;13129;48.012;10.352;2022-09-09T03:34:56;12.00;99.90
25170;DHT22;13129;48.012;10.352;2022-09-09T03:37:22;12.00;99.90
25170;DHT22;13129;48.012;10.352;2022-09-09T03:39:48;12.00;99.90
25170;DHT22;13129;48.012;10.352;2022-09-09T03:42:13;12.00;99.90
25170;DHT22;13129;48.012;10.352;2022-09-09T03:44:45;12.00;99.90
25170;DHT22;13129;48.012;10.352;2022-09-09T03:47:19;12.00;99.90
25170;DHT22;13129;48.012;10.352;2022-09-09T03:50:03;12.00;99.90
25170;DHT22;13129;48.012;10.352;2022-09-09T03:52:29;12.00;99.90
25170;DHT22;13129;48.012;10.352;2022-09-09T03:55:01;12.00;99.90
25170;DHT22;13129;48.012;10.352;2022-09-09T03:57:27;12.10;99.90
25170;DHT22;13129;48.012;10.352;2022-09-09T03:59:52;12.10;99.90
25170;DHT22;13129;48.012;10.352;2022-09-09T04:02:18;12.20;99.90
25170;DHT22;13129;48.012;10.352;2022-09-09T04:04:43;12.20;99.90
25170;DHT22;13129;48.012;10.352;2022-09-09T04:07:09;12.30;99.90
25170;DHT22;13129;48.012;10.352;2022-09-09T04:09:35;12.30;99.90
25170;DHT22;13129;48.012;10.352;2022-09-09T04:12:00;12.30;99.90
25170;DHT22;13129;48.012;10.352;2022-09-09T04:14:26;12.30;99.90
25170;DHT22;13129;48.012;10.352;2022-09-09T04:16:54;12.40;99.90
25170;DHT22;13129;48.012;10.352;2022-09-09T04:19:19;12.40;99.90
25170;DHT22;13129;48.012;10.352;2022-09-09T04:21:45;12.50;99.90
25170;DHT22;13129;48.012;10.352;2022-09-09T04:24:10;12.50;99.90
25170;DHT22;13129;48.012;10.352;2022-09-09T04:26:36;12.60;99.90
25170;DHT22;13129;48.012;10.352;2022-09-09T04:29:02;12.60;99.90
25170;DHT22;13129;48.012;10.352;2022-09-09T04:31:28;12.60;99.90
25170;DHT22;13129;48.012;10.352;2022-09-09T04:33:54;12.60;99.90
25170;DHT22;13129;48.012;10.352;2022-09-09T04:36:20;12.60;99.90
25170;DHT22;13129;48.012;10.352;2022-09-09T04:38:45;12.70;99.90
25170;DHT22;13129;48.012;10.352;2022-09-09T04:41:11;12.70;99.90
25170;DHT22;13129;48.012;10.352;2022-09-09T04:43:37;12.60;99.90
25170;DHT22;13129;48.012;10.352;2022-09-09T04:46:03;12.60;99.90
25170;DHT22;13129;48.012;10.352;2022-09-09T04:48:29;12.60;99.90
25170;DHT22;13129;48.012;10.352;2022-09-09T04:51:06;12.50;99.90
25170;DHT22;13129;48.012;10.352;2022-09-09T04:53:32;12.40;99.90
25170;DHT22;13129;48.012;10.352;2022-09-09T04:56:03;12.40;99.90
25170;DHT22;13129;48.012;10.352;2022-09-09T04:58:29;12.30;99.90
25170;DHT22;13129;48.012;10.352;2022-09-09T05:00:56;12.20;99.90
25170;DHT22;13129;48.012;10.352;2022-09-09T05:03:27;12.20;99.90
25170;DHT22;13129;48.012;10.352;2022-09-09T05:05:52;12.20;99.90
25170;DHT22;13129;48.012;10.352;2022-09-09T05:08:18;12.30;99.90
25170;DHT22;13129;48.012;10.352;2022-09-09T05:10:43;12.30;99.90
25170;DHT22;13129;48.012;10.352;2022-09-09T05:13:09;12.30;99.90
25170;DHT22;13129;48.012;10.352;2022-09-09T05:15:34;12.30;99.90
25170;DHT22;13129;48.012;10.352;2022-09-09T05:18:01;12.30;99.90
25170;DHT22;13129;48.012;10.352;2022-09-09T05:20:27;12.30;99.90
25170;DHT22;13129;48.012;10.352;2022-09-09T05:22:53;12.30;99.90
25170;DHT22;13129;48.012;10.352;2022-09-09T05:25:19;12.30;99.90
25170;DHT22;13129;48.012;10.352;2022-09-09T05:27:45;12.30;99.90
25170;DHT22;13129;48.012;10.352;2022-09-09T05:30:10;12.40;99.90
25170;DHT22;13129;48.012;10.352;2022-09-09T05:32:36;12.50;99.90
25170;DHT22;13129;48.012;10.352;2022-09-09T05:35:02;12.50;99.90
25170;DHT22;13129;48.012;10.352;2022-09-09T05:37:28;12.60;99.90
25170;DHT22;13129;48.012;10.352;2022-09-09T05:39:55;12.70;99.90
25170;DHT22;13129;48.012;10.352;2022-09-09T05:42:20;12.80;99.90
25170;DHT22;13129;48.012;10.352;2022-09-09T05:44:46;13.00;99.90
25170;DHT22;13129;48.012;10.352;2022-09-09T05:47:12;13.10;99.90
25170;DHT22;13129;48.012;10.352;2022-09-09T05:49:37;13.30;99.90
25170;DHT22;13129;48.012;10.352;2022-09-09T05:52:03;13.40;99.90
25170;DHT22;13129;48.012;10.352;2022-09-09T05:54:29;13.50;99.90
25170;DHT22;13129;48.012;10.352;2022-09-09T05:56:55;13.70;99.90
25170;DHT22;13129;48.012;10.352;2022-09-09T05:59:20;13.80;99.90
25170;DHT22;13129;48.012;10.352;2022-09-09T06:01:48;14.00;99.90
25170;DHT22;13129;48.012;10.352;2022-09-09T06:04:13;14.10;99.90
25170;DHT22;13129;48.012;10.352;2022-09-09T06:06:39;14.30;99.90
25170;DHT22;13129;48.012;10.352;2022-09-09T06:09:05;14.40;99.90
25170;DHT22;13129;48.012;10.352;2022-09-09T06:11:36;14.50;99.90
25170;DHT22;13129;48.012;10.352;2022-09-09T06:14:02;14.60;99.90
25170;DHT22;13129;48.012;10.352;2022-09-09T06:16:29;14.70;99.90
25170;DHT22;13129;48.012;10.352;2022-09-09T06:18:55;14.80;99.90
25170;DHT22;13129;48.012;10.352;2022-09-09T06:21:22;14.90;99.90
25170;DHT22;13129;48.012;10.352;2022-09-09T06:23:48;14.90;99.90
25170;DHT22;13129;48.012;10.352;2022-09-09T06:26:15;15.00;99.90
25170;DHT22;13129;48.012;10.352;2022-09-09T06:28:43;15.00;99.90
25170;DHT22;13129;48.012;10.352;2022-09-09T06:31:11;15.10;99.90
25170;DHT22;13129;48.012;10.352;2022-09-09T06:33:37;15.10;99.90
25170;DHT22;13129;48.012;10.352;2022-09-09T06:36:04;15.10;99.90
25170;DHT22;13129;48.012;10.352;2022-09-09T06:38:30;15.10;99.90
25170;DHT22;13129;48.012;10.352;2022-09-09T06:40:56;15.10;99.90
25170;DHT22;13129;48.012;10.352;2022-09-09T06:43:24;15.10;99.90
25170;DHT22;13129;48.012;10.352;2022-09-09T06:45:55;15.10;99.90
25170;DHT22;13129;48.012;10.352;2022-09-09T06:48:24;15.10;99.90
25170;DHT22;13129;48.012;10.352;2022-09-09T06:53:28;15.10;99.90
25170;DHT22;13129;48.012;10.352;2022-09-09T06:55:54;15.10;99.90
25170;DHT22;13129;48.012;10.352;2022-09-09T06:58:20;15.20;99.90
25170;DHT22;13129;48.012;10.352;2022-09-09T07:00:47;15.20;99.90
25170;DHT22;13129;48.012;10.352;2022-09-09T07:03:13;15.30;99.90
25170;DHT22;13129;48.012;10.352;2022-09-09T07:05:38;15.40;99.90
25170;DHT22;13129;48.012;10.352;2022-09-09T07:08:04;15.60;99.90
25170;DHT22;13129;48.012;10.352;2022-09-09T07:10:30;15.70;99.90
25170;DHT22;13129;48.012;10.352;2022-09-09T07:12:58;15.90;99.90
25170;DHT22;13129;48.012;10.352;2022-09-09T07:15:38;16.00;99.90
25170;DHT22;13129;48.012;10.352;2022-09-09T07:18:14;16.10;99.90
25170;DHT22;13129;48.012;10.352;2022-09-09T07:20:45;16.10;99.90
25170;DHT22;13129;48.012;10.352;2022-09-09T07:23:17;16.10;99.90
25170;DHT22;13129;48.012;10.352;2022-09-09T07:25:46;16.20;99.90
25170;DHT22;13129;48.012;10.352;2022-09-09T07:28:13;16.30;99.90
25170;DHT22;13129;48.012;10.352;2022-09-09T07:30:38;16.40;99.90
25170;DHT22;13129;48.012;10.352;2022-09-09T07:33:04;16.50;99.90
25170;DHT22;13129;48.012;10.352;2022-09-09T07:35:30;16.60;99.90
25170;DHT22;13129;48.012;10.352;2022-09-09T07:37:55;16.80;99.90
25170;DHT22;13129;48.012;10.352;2022-09-09T07:40:21;16.90;99.90
25170;DHT22;13129;48.012;10.352;2022-09-09T07:42:47;17.00;99.90
25170;DHT22;13129;48.012;10.352;2022-09-09T07:45:13;17.10;99.90
25170;DHT22;13129;48.012;10.352;2022-09-09T07:47:39;17.20;99.90
25170;DHT22;13129;48.012;10.352;2022-09-09T07:50:06;17.40;99.90
25170;DHT22;13129;48.012;10.352;2022-09-09T07:52:33;17.70;99.90
25170;DHT22;13129;48.012;10.352;2022-09-09T07:54:59;18.10;99.90
25170;DHT22;13129;48.012;10.352;2022-09-09T07:57:28;18.30;99.90
25170;DHT22;13129;48.012;10.352;2022-09-09T07:59:55;18.20;99.90
25170;DHT22;13129;48.012;10.352;2022-09-09T08:02:22;18.00;99.90
25170;DHT22;13129;48.012;10.352;2022-09-09T08:04:48;17.70;99.90
25170;DHT22;13129;48.012;10.352;2022-09-09T08:07:14;17.50;99.90
25170;DHT22;13129;48.012;10.352;2022-09-09T08:09:39;17.30;99.90
25170;DHT22;13129;48.012;10.352;2022-09-09T08:12:05;17.20;99.90
25170;DHT22;13129;48.012;10.352;2022-09-09T08:14:33;17.10;99.90
25170;DHT22;13129;48.012;10.352;2022-09-09T08:16:59;17.10;99.90
25170;DHT22;13129;48.012;10.352;2022-09-09T08:19:24;17.20;99.90
25170;DHT22;13129;48.012;10.352;2022-09-09T08:21:50;17.60;99.90
25170;DHT22;13129;48.012;10.352;2022-09-09T08:24:16;18.50;99.90
25170;DHT22;13129;48.012;10.352;2022-09-09T08:26:45;19.40;99.90
25170;DHT22;13129;48.012;10.352;2022-09-09T08:29:12;20.10;99.90
25170;DHT22;13129;48.012;10.352;2022-09-09T08:31:39;20.10;99.90
25170;DHT22;13129;48.012;10.352;2022-09-09T08:34:06;19.90;99.90
25170;DHT22;13129;48.012;10.352;2022-09-09T08:36:33;19.50;99.90
25170;DHT22;13129;48.012;10.352;2022-09-09T08:38:59;19.10;99.90
25170;DHT22;13129;48.012;10.352;2022-09-09T08:43:51;18.60;99.90
25170;DHT22;13129;48.012;10.352;2022-09-09T08:46:25;18.70;99.90
25170;DHT22;13129;48.012;10.352;2022-09-09T08:51:20;18.80;99.90
25170;DHT22;13129;48.012;10.352;2022-09-09T08:53:46;18.80;99.90
25170;DHT22;13129;48.012;10.352;2022-09-09T08:56:14;18.70;99.90
25170;DHT22;13129;48.012;10.352;2022-09-09T08:58:43;18.50;99.90
25170;DHT22;13129;48.012;10.352;2022-09-09T09:11:20;18.00;99.90
25170;DHT22;13129;48.012;10.352;2022-09-09T09:17:00;17.70;99.90
25170;DHT22;13129;48.012;10.352;2022-09-09T09:19:26;17.60;99.90
25170;DHT22;13129;48.012;10.352;2022-09-09T09:21:54;17.50;99.90
25170;DHT22;13129;48.012;10.352;2022-09-09T09:24:24;17.50;99.90
25170;DHT22;13129;48.012;10.352;2022-09-09T09:26:51;17.60;99.90
25170;DHT22;13129;48.012;10.352;2022-09-09T09:29:19;17.60;99.90
25170;DHT22;13129;48.012;10.352;2022-09-09T09:31:45;17.80;99.90
25170;DHT22;13129;48.012;10.352;2022-09-09T09:34:13;17.90;99.90
25170;DHT22;13129;48.012;10.352;2022-09-09T09:36:45;18.00;99.90
25170;DHT22;13129;48.012;10.352;2022-09-09T09:39:28;18.10;99.90
25170;DHT22;13129;48.012;10.352;2022-09-09T09:41:54;18.10;99.90
25170;DHT22;13129;48.012;10.352;2022-09-09T09:44:30;18.20;99.90
25170;DHT22;13129;48.012;10.352;2022-09-09T09:47:05;18.40;99.90
25170;DHT22;13129;48.012;10.352;2022-09-09T09:49:31;18.70;99.90
25170;DHT22;13129;48.012;10.352;2022-09-09T09:52:01;19.40;99.90
25170;DHT22;13129;48.012;10.352;2022-09-09T09:54:28;20.30;99.90
25170;DHT22;13129;48.012;10.352;2022-09-09T09:56:54;20.80;99.90
25170;DHT22;13129;48.012;10.352;2022-09-09T10:01:48;20.90;99.90
25170;DHT22;13129;48.012;10.352;2022-09-09T10:04:15;20.90;99.90
25170;DHT22;13129;48.012;10.352;2022-09-09T10:06:45;20.90;99.90
25170;DHT22;13129;48.012;10.352;2022-09-09T10:09:27;21.00;99.90
25170;DHT22;13129;48.012;10.352;2022-09-09T10:14:44;20.70;99.90
25170;DHT22;13129;48.012;10.352;2022-09-09T10:23:09;21.40;99.90
25170;DHT22;13129;48.012;10.352;2022-09-09T10:25:48;21.30;99.90
25170;DHT22;13129;48.012;10.352;2022-09-09T10:28:26;21.10;99.90
25170;DHT22;13129;48.012;10.352;2022-09-09T10:31:14;21.00;99.90
25170;DHT22;13129;48.012;10.352;2022-09-09T10:36:12;20.80;99.90
25170;DHT22;13129;48.012;10.352;2022-09-09T10:38:39;20.70;99.90
25170;DHT22;13129;48.012;10.352;2022-09-09T10:41:09;20.50;99.90
25170;DHT22;13129;48.012;10.352;2022-09-09T10:46:24;20.50;99.90
25170;DHT22;13129;48.012;10.352;2022-09-09T10:59:46;21.00;99.90
25170;DHT22;13129;48.012;10.352;2022-09-09T11:02:19;20.90;99.90
25170;DHT22;13129;48.012;10.352;2022-09-09T11:04:49;20.80;99.90
25170;DHT22;13129;48.012;10.352;2022-09-09T11:07:20;20.70;99.90
25170;DHT22;13129;48.012;10.352;2022-09-09T11:09:49;20.50;99.90
25170;DHT22;13129;48.012;10.352;2022-09-09T11:12:17;20.40;99.90
25170;DHT22;13129;48.012;10.352;2022-09-09T11:14:45;20.50;99.90
25170;DHT22;13129;48.012;10.352;2022-09-09T11:17:14;20.70;99.90
25170;DHT22;13129;48.012;10.352;2022-09-09T11:19:42;20.90;99.90
25170;DHT22;13129;48.012;10.352;2022-09-09T11:24:41;21.10;99.90
25170;DHT22;13129;48.012;10.352;2022-09-09T11:32:19;20.80;99.90
25170;DHT22;13129;48.012;10.352;2022-09-09T11:34:53;20.80;99.90
25170;DHT22;13129;48.012;10.352;2022-09-09T11:42:21;20.80;99.90
25170;DHT22;13129;48.012;10.352;2022-09-09T11:44:47;20.90;99.90
25170;DHT22;13129;48.012;10.352;2022-09-09T11:47:26;21.50;99.90
25170;DHT22;13129;48.012;10.352;2022-09-09T11:49:55;21.80;99.90
25170;DHT22;13129;48.012;10.352;2022-09-09T11:52:25;22.20;99.90
25170;DHT22;13129;48.012;10.352;2022-09-09T11:54:54;22.10;99.90
25170;DHT22;13129;48.012;10.352;2022-09-09T11:57:24;21.90;99.90
25170;DHT22;13129;48.012;10.352;2022-09-09T11:59:51;21.70;99.90
25170;DHT22;13129;48.012;10.352;2022-09-09T12:12:40;20.30;99.90
25170;DHT22;13129;48.012;10.352;2022-09-09T12:17:31;20.60;99.90
25170;DHT22;13129;48.012;10.352;2022-09-09T12:20:15;20.80;99.90
25170;DHT22;13129;48.012;10.352;2022-09-09T12:25:18;21.80;99.90
25170;DHT22;13129;48.012;10.352;2022-09-09T12:30:22;22.20;99.90
25170;DHT22;13129;48.012;10.352;2022-09-09T12:33:01;22.40;99.90
25170;DHT22;13129;48.012;10.352;2022-09-09T12:35:27;22.50;99.90
25170;DHT22;13129;48.012;10.352;2022-09-09T12:37:55;22.40;99.90
25170;DHT22;13129;48.012;10.352;2022-09-09T12:42:51;22.20;99.90
25170;DHT22;13129;48.012;10.352;2022-09-09T12:45:18;22.20;99.90
25170;DHT22;13129;48.012;10.352;2022-09-09T12:47:45;21.90;99.90
25170;DHT22;13129;48.012;10.352;2022-09-09T12:50:31;21.50;99.90
25170;DHT22;13129;48.012;10.352;2022-09-09T12:52:58;21.30;99.90
25170;DHT22;13129;48.012;10.352;2022-09-09T12:55:28;21.10;99.90
25170;DHT22;13129;48.012;10.352;2022-09-09T12:57:55;20.80;99.90
25170;DHT22;13129;48.012;10.352;2022-09-09T13:00:21;20.60;99.90
25170;DHT22;13129;48.012;10.352;2022-09-09T13:02:52;20.40;99.90
25170;DHT22;13129;48.012;10.352;2022-09-09T13:05:34;20.10;99.90
25170;DHT22;13129;48.012;10.352;2022-09-09T13:08:03;19.90;99.90
25170;DHT22;13129;48.012;10.352;2022-09-09T13:10:31;19.70;99.90
25170;DHT22;13129;48.012;10.352;2022-09-09T13:12:58;19.70;99.90
25170;DHT22;13129;48.012;10.352;2022-09-09T13:15:26;19.80;99.90
25170;DHT22;13129;48.012;10.352;2022-09-09T13:18:00;19.90;99.90
25170;DHT22;13129;48.012;10.352;2022-09-09T13:20:28;20.00;99.90
25170;DHT22;13129;48.012;10.352;2022-09-09T13:22:54;20.20;99.90
25170;DHT22;13129;48.012;10.352;2022-09-09T13:25:24;20.30;99.90
25170;DHT22;13129;48.012;10.352;2022-09-09T13:35:56;21.30;99.90
25170;DHT22;13129;48.012;10.352;2022-09-09T13:38:23;21.40;99.90
25170;DHT22;13129;48.012;10.352;2022-09-09T13:40:54;21.40;99.90
25170;DHT22;13129;48.012;10.352;2022-09-09T13:43:23;21.50;99.90
25170;DHT22;13129;48.012;10.352;2022-09-09T13:45:53;21.40;99.90
25170;DHT22;13129;48.012;10.352;2022-09-09T13:48:19;21.30;99.90
25170;DHT22;13129;48.012;10.352;2022-09-09T13:50:53;21.20;99.90
25170;DHT22;13129;48.012;10.352;2022-09-09T13:53:18;21.00;99.90
25170;DHT22;13129;48.012;10.352;2022-09-09T13:55:44;20.80;99.90
25170;DHT22;13129;48.012;10.352;2022-09-09T13:58:14;20.70;99.90
25170;DHT22;13129;48.012;10.352;2022-09-09T14:00:40;20.70;99.90
25170;DHT22;13129;48.012;10.352;2022-09-09T14:03:06;20.60;99.90
25170;DHT22;13129;48.012;10.352;2022-09-09T14:05:32;20.70;99.90
25170;DHT22;13129;48.012;10.352;2022-09-09T14:07:58;20.70;99.90
25170;DHT22;13129;48.012;10.352;2022-09-09T14:10:25;20.70;99.90
25170;DHT22;13129;48.012;10.352;2022-09-09T14:12:51;20.80;99.90
25170;DHT22;13129;48.012;10.352;2022-09-09T14:15:18;20.60;99.90
25170;DHT22;13129;48.012;10.352;2022-09-09T14:17:44;20.40;99.90
25170;DHT22;13129;48.012;10.352;2022-09-09T14:20:09;20.30;99.90
25170;DHT22;13129;48.012;10.352;2022-09-09T14:22:37;20.20;99.90
25170;DHT22;13129;48.012;10.352;2022-09-09T14:25:04;20.30;99.90
25170;DHT22;13129;48.012;10.352;2022-09-09T14:27:31;20.10;99.90
25170;DHT22;13129;48.012;10.352;2022-09-09T14:29:57;20.00;99.90
25170;DHT22;13129;48.012;10.352;2022-09-09T14:32:23;19.90;99.90
25170;DHT22;13129;48.012;10.352;2022-09-09T14:34:49;19.80;99.90
25170;DHT22;13129;48.012;10.352;2022-09-09T14:37:15;19.80;99.90
25170;DHT22;13129;48.012;10.352;2022-09-09T14:39:41;19.70;99.90
25170;DHT22;13129;48.012;10.352;2022-09-09T14:42:09;19.60;99.90
25170;DHT22;13129;48.012;10.352;2022-09-09T14:44:37;19.50;99.90
25170;DHT22;13129;48.012;10.352;2022-09-09T14:47:06;19.50;99.90
25170;DHT22;13129;48.012;10.352;2022-09-09T14:49:33;19.60;99.90
25170;DHT22;13129;48.012;10.352;2022-09-09T14:51:59;19.70;99.90
25170;DHT22;13129;48.012;10.352;2022-09-09T14:54:24;19.80;99.90
25170;DHT22;13129;48.012;10.352;2022-09-09T14:56:50;19.90;99.90
25170;DHT22;13129;48.012;10.352;2022-09-09T14:59:15;19.80;99.90
25170;DHT22;13129;48.012;10.352;2022-09-09T15:01:41;19.70;99.90
25170;DHT22;13129;48.012;10.352;2022-09-09T15:04:06;19.60;99.90
25170;DHT22;13129;48.012;10.352;2022-09-09T15:06:33;19.50;99.90
25170;DHT22;13129;48.012;10.352;2022-09-09T15:08:59;19.40;99.90
25170;DHT22;13129;48.012;10.352;2022-09-09T15:11:27;19.30;99.90
25170;DHT22;13129;48.012;10.352;2022-09-09T15:13:53;19.20;99.90
25170;DHT22;13129;48.012;10.352;2022-09-09T15:16:20;19.10;99.90
25170;DHT22;13129;48.012;10.352;2022-09-09T15:18:50;19.00;99.90
25170;DHT22;13129;48.012;10.352;2022-09-09T15:21:18;19.00;99.90
25170;DHT22;13129;48.012;10.352;2022-09-09T15:23:46;18.90;99.90
25170;DHT22;13129;48.012;10.352;2022-09-09T15:26:13;18.80;99.90
25170;DHT22;13129;48.012;10.352;2022-09-09T15:28:42;18.80;99.90
25170;DHT22;13129;48.012;10.352;2022-09-09T15:31:13;18.70;99.90
25170;DHT22;13129;48.012;10.352;2022-09-09T15:33:52;18.60;99.90
25170;DHT22;13129;48.012;10.352;2022-09-09T15:36:24;18.60;99.90
25170;DHT22;13129;48.012;10.352;2022-09-09T15:38:51;18.50;99.90
25170;DHT22;13129;48.012;10.352;2022-09-09T15:41:18;18.50;99.90
25170;DHT22;13129;48.012;10.352;2022-09-09T15:43:44;18.40;99.90
25170;DHT22;13129;48.012;10.352;2022-09-09T15:48:43;18.40;99.90
25170;DHT22;13129;48.012;10.352;2022-09-09T15:51:09;18.40;99.90
25170;DHT22;13129;48.012;10.352;2022-09-09T15:53:36;18.30;99.90
25170;DHT22;13129;48.012;10.352;2022-09-09T15:56:04;18.30;99.90
25170;DHT22;13129;48.012;10.352;2022-09-09T15:58:32;18.20;99.90
25170;DHT22;13129;48.012;10.352;2022-09-09T16:01:05;18.20;99.90
25170;DHT22;13129;48.012;10.352;2022-09-09T16:03:36;18.20;99.90
25170;DHT22;13129;48.012;10.352;2022-09-09T16:06:02;18.10;99.90
25170;DHT22;13129;48.012;10.352;2022-09-09T16:08:31;18.10;99.90
25170;DHT22;13129;48.012;10.352;2022-09-09T16:11:03;18.10;99.90
25170;DHT22;13129;48.012;10.352;2022-09-09T16:13:31;18.00;99.90
25170;DHT22;13129;48.012;10.352;2022-09-09T16:15:57;18.00;99.90
25170;DHT22;13129;48.012;10.352;2022-09-09T16:18:24;18.00;99.90
25170;DHT22;13129;48.012;10.352;2022-09-09T16:20:55;17.90;99.90
25170;DHT22;13129;48.012;10.352;2022-09-09T16:23:21;17.90;99.90
25170;DHT22;13129;48.012;10.352;2022-09-09T16:25:53;17.90;99.90
25170;DHT22;13129;48.012;10.352;2022-09-09T16:28:19;17.80;99.90
25170;DHT22;13129;48.012;10.352;2022-09-09T16:30:44;17.80;99.90
25170;DHT22;13129;48.012;10.352;2022-09-09T16:33:10;17.70;99.90
25170;DHT22;13129;48.012;10.352;2022-09-09T16:35:39;17.70;99.90
25170;DHT22;13129;48.012;10.352;2022-09-09T16:38:05;17.70;99.90
25170;DHT22;13129;48.012;10.352;2022-09-09T16:40:35;17.60;99.90
25170;DHT22;13129;48.012;10.352;2022-09-09T16:43:02;17.50;99.90
25170;DHT22;13129;48.012;10.352;2022-09-09T16:45:28;17.40;99.90
25170;DHT22;13129;48.012;10.352;2022-09-09T16:47:54;17.40;99.90
25170;DHT22;13129;48.012;10.352;2022-09-09T16:50:21;17.30;99.90
25170;DHT22;13129;48.012;10.352;2022-09-09T16:52:47;17.30;99.90
25170;DHT22;13129;48.012;10.352;2022-09-09T16:55:13;17.20;99.90
25170;DHT22;13129;48.012;10.352;2022-09-09T16:57:39;17.10;99.90
25170;DHT22;13129;48.012;10.352;2022-09-09T17:00:07;17.00;99.90
25170;DHT22;13129;48.012;10.352;2022-09-09T17:02:33;17.00;99.90
25170;DHT22;13129;48.012;10.352;2022-09-09T17:04:58;17.00;99.90
25170;DHT22;13129;48.012;10.352;2022-09-09T17:07:24;16.90;99.90
25170;DHT22;13129;48.012;10.352;2022-09-09T17:09:50;16.90;99.90
25170;DHT22;13129;48.012;10.352;2022-09-09T17:12:18;16.90;99.90
25170;DHT22;13129;48.012;10.352;2022-09-09T17:14:44;16.80;99.90
25170;DHT22;13129;48.012;10.352;2022-09-09T17:17:10;16.80;99.90
25170;DHT22;13129;48.012;10.352;2022-09-09T17:19:36;16.70;99.90
25170;DHT22;13129;48.012;10.352;2022-09-09T17:22:01;16.60;99.90
25170;DHT22;13129;48.012;10.352;2022-09-09T17:24:27;16.50;99.90
25170;DHT22;13129;48.012;10.352;2022-09-09T17:26:54;16.40;99.90
25170;DHT22;13129;48.012;10.352;2022-09-09T17:29:29;16.30;99.90
25170;DHT22;13129;48.012;10.352;2022-09-09T17:31:55;16.20;99.90
25170;DHT22;13129;48.012;10.352;2022-09-09T17:34:20;16.10;99.90
25170;DHT22;13129;48.012;10.352;2022-09-09T17:36:46;16.10;99.90
25170;DHT22;13129;48.012;10.352;2022-09-09T17:39:12;15.90;99.90
25170;DHT22;13129;48.012;10.352;2022-09-09T17:41:38;15.90;99.90
25170;DHT22;13129;48.012;10.352;2022-09-09T17:44:04;15.80;99.90
25170;DHT22;13129;48.012;10.352;2022-09-09T17:46:31;15.80;99.90
25170;DHT22;13129;48.012;10.352;2022-09-09T17:48:59;15.70;99.90
25170;DHT22;13129;48.012;10.352;2022-09-09T17:51:26;15.70;99.90
25170;DHT22;13129;48.012;10.352;2022-09-09T17:53:53;15.50;99.90
25170;DHT22;13129;48.012;10.352;2022-09-09T17:56:24;15.40;99.90
25170;DHT22;13129;48.012;10.352;2022-09-09T17:58:50;15.30;99.90
25170;DHT22;13129;48.012;10.352;2022-09-09T18:01:23;15.20;99.90
25170;DHT22;13129;48.012;10.352;2022-09-09T18:03:49;15.10;99.90
25170;DHT22;13129;48.012;10.352;2022-09-09T18:06:16;15.00;99.90
25170;DHT22;13129;48.012;10.352;2022-09-09T18:08:46;14.90;99.90
25170;DHT22;13129;48.012;10.352;2022-09-09T18:11:11;14.90;99.90
25170;DHT22;13129;48.012;10.352;2022-09-09T18:13:37;14.80;99.90
25170;DHT22;13129;48.012;10.352;2022-09-09T18:16:05;14.70;99.90
25170;DHT22;13129;48.012;10.352;2022-09-09T18:18:31;14.70;99.90
25170;DHT22;13129;48.012;10.352;2022-09-09T18:20:57;14.60;99.90
25170;DHT22;13129;48.012;10.352;2022-09-09T18:23:23;14.50;99.90
25170;DHT22;13129;48.012;10.352;2022-09-09T18:25:48;14.30;99.90
25170;DHT22;13129;48.012;10.352;2022-09-09T18:28:14;14.20;99.90
25170;DHT22;13129;48.012;10.352;2022-09-09T18:30:39;14.10;99.90
25170;DHT22;13129;48.012;10.352;2022-09-09T18:33:05;14.10;99.90
25170;DHT22;13129;48.012;10.352;2022-09-09T18:35:31;14.00;99.90
25170;DHT22;13129;48.012;10.352;2022-09-09T18:37:56;13.90;99.90
25170;DHT22;13129;48.012;10.352;2022-09-09T18:40:22;13.80;99.90
25170;DHT22;13129;48.012;10.352;2022-09-09T18:42:47;13.80;99.90
25170;DHT22;13129;48.012;10.352;2022-09-09T18:45:13;13.70;99.90
25170;DHT22;13129;48.012;10.352;2022-09-09T18:47:39;13.80;99.90
25170;DHT22;13129;48.012;10.352;2022-09-09T18:50:04;13.90;99.90
25170;DHT22;13129;48.012;10.352;2022-09-09T18:52:30;13.90;99.90
25170;DHT22;13129;48.012;10.352;2022-09-09T18:54:55;14.00;99.90
25170;DHT22;13129;48.012;10.352;2022-09-09T18:57:21;14.00;99.90
25170;DHT22;13129;48.012;10.352;2022-09-09T18:59:47;14.00;99.90
25170;DHT22;13129;48.012;10.352;2022-09-09T19:02:13;14.10;99.90
25170;DHT22;13129;48.012;10.352;2022-09-09T19:04:39;14.10;99.90
25170;DHT22;13129;48.012;10.352;2022-09-09T19:07:04;14.10;99.90
25170;DHT22;13129;48.012;10.352;2022-09-09T19:09:31;14.10;99.90
25170;DHT22;13129;48.012;10.352;2022-09-09T19:11:58;13.90;99.90
25170;DHT22;13129;48.012;10.352;2022-09-09T19:14:24;13.80;99.90
25170;DHT22;13129;48.012;10.352;2022-09-09T19:16:50;13.50;99.90
25170;DHT22;13129;48.012;10.352;2022-09-09T19:19:17;13.40;99.90
25170;DHT22;13129;48.012;10.352;2022-09-09T19:21:44;13.30;99.90
25170;DHT22;13129;48.012;10.352;2022-09-09T19:24:16;13.20;99.90
25170;DHT22;13129;48.012;10.352;2022-09-09T19:26:43;13.20;99.90
25170;DHT22;13129;48.012;10.352;2022-09-09T19:29:11;13.20;99.90
25170;DHT22;13129;48.012;10.352;2022-09-09T19:31:39;13.20;99.90
25170;DHT22;13129;48.012;10.352;2022-09-09T19:34:06;13.20;99.90
25170;DHT22;13129;48.012;10.352;2022-09-09T19:36:31;13.30;99.90
25170;DHT22;13129;48.012;10.352;2022-09-09T19:38:57;13.40;99.90
25170;DHT22;13129;48.012;10.352;2022-09-09T19:41:25;13.40;99.90
25170;DHT22;13129;48.012;10.352;2022-09-09T19:43:51;13.50;99.90
25170;DHT22;13129;48.012;10.352;2022-09-09T19:46:20;13.60;99.90
25170;DHT22;13129;48.012;10.352;2022-09-09T19:48:46;13.70;99.90
25170;DHT22;13129;48.012;10.352;2022-09-09T19:51:14;13.80;99.90
25170;DHT22;13129;48.012;10.352;2022-09-09T19:53:41;13.90;99.90
25170;DHT22;13129;48.012;10.352;2022-09-09T19:56:07;14.00;99.90
25170;DHT22;13129;48.012;10.352;2022-09-09T19:58:34;14.00;99.90
25170;DHT22;13129;48.012;10.352;2022-09-09T20:01:13;14.10;99.90
25170;DHT22;13129;48.012;10.352;2022-09-09T20:03:40;14.10;99.90
25170;DHT22;13129;48.012;10.352;2022-09-09T20:06:06;14.20;99.90
25170;DHT22;13129;48.012;10.352;2022-09-09T20:08:33;14.20;99.90
25170;DHT22;13129;48.012;10.352;2022-09-09T20:10:59;14.20;99.90
25170;DHT22;13129;48.012;10.352;2022-09-09T20:13:26;14.20;99.90
25170;DHT22;13129;48.012;10.352;2022-09-09T20:16:02;14.20;99.90
25170;DHT22;13129;48.012;10.352;2022-09-09T20:18:32;14.10;99.90
25170;DHT22;13129;48.012;10.352;2022-09-09T20:20:58;14.10;99.90